Time;durP1;ratioP1;P1;durP2;ratioP2;P2;SDS_P1;SDS_P2;PMS_P1;PMS_P2;Temp;Humidity;BMP_temperature;BMP_pressure;BME280_temperature;BME280_humidity;BME280_pressure;Samples;Min_cycle;Max_cycle;Signal;HPM_P1;HPM_P2
2023/02/01 00:02:03;;;;;;;24.98;8.60;;;7.00;54.30;;;;;;6147557;28;20190;-68
2023/02/01 00:05:04;;;;;;;24.15;9.07;;;7.00;54.30;;;;;;6150941;29;20038;-66
2023/02/01 00:08:05;;;;;;;22.60;8.40;;;6.90;54.40;;;;;;6147474;28;20408;-66
2023/02/01 00:11:10;;;;;;;19.27;7.40;;;6.90;54.60;;;;;;6145130;29;20028;-67
2023/02/01 00:14:11;;;;;;;18.02;7.50;;;6.80;54.70;;;;;;6146232;28;20039;-66
2023/02/01 00:17:12;;;;;;;18.50;8.20;;;6.80;54.80;;;;;;6146397;28;20432;-66
2023/02/01 00:20:12;;;;;;;20.85;7.55;;;6.80;54.80;;;;;;6145972;28;20023;-68
2023/02/01 00:23:13;;;;;;;15.55;7.20;;;6.80;54.90;;;;;;6145241;29;20043;-67
2023/02/01 00:26:17;;;;;;;15.50;6.90;;;6.80;55.00;;;;;;6141401;28;20029;-67
2023/02/01 00:29:20;;;;;;;16.98;7.22;;;6.70;55.10;;;;;;6245000;28;20034;-66
2023/02/01 00:32:20;;;;;;;20.33;7.95;;;6.70;55.20;;;;;;6246266;28;20056;-68
2023/02/01 00:35:22;;;;;;;18.08;8.13;;;6.60;55.30;;;;;;6218146;28;20119;-66
2023/02/01 00:38:23;;;;;;;29.48;8.52;;;6.60;55.30;;;;;;6122059;29;20461;-66
2023/02/01 00:41:24;;;;;;;21.77;8.48;;;6.60;55.30;;;;;;6121021;28;20043;-66
2023/02/01 00:44:25;;;;;;;18.65;8.02;;;6.70;55.30;;;;;;6120908;28;20038;-68
2023/02/01 00:47:26;;;;;;;19.10;6.63;;;6.70;55.20;;;;;;6121957;29;20040;-69
2023/02/01 00:50:27;;;;;;;17.25;7.18;;;6.80;55.20;;;;;;6121788;29;20028;-68
2023/02/01 00:53:28;;;;;;;14.88;6.32;;;6.80;55.00;;;;;;6121138;28;20081;-68
2023/02/01 00:56:29;;;;;;;15.27;6.57;;;6.90;55.00;;;;;;6120661;28;20051;-68
2023/02/01 00:59:30;;;;;;;17.48;7.68;;;7.00;54.80;;;;;;6104793;28;20500;-68
2023/02/01 01:02:31;;;;;;;15.68;7.20;;;7.00;54.70;;;;;;6122144;28;20039;-67
2023/02/01 01:05:32;;;;;;;15.00;6.70;;;7.00;54.60;;;;;;6122083;28;20554;-67
2023/02/01 01:08:33;;;;;;;24.17;7.68;;;7.10;54.60;;;;;;6104361;28;20475;-66
2023/02/01 01:11:36;;;;;;;13.50;7.10;;;7.10;54.60;;;;;;6124597;29;20054;-67
2023/02/01 01:14:39;;;;;;;14.10;6.57;;;7.10;54.50;;;;;;6124696;28;20036;-66
2023/02/01 01:17:40;;;;;;;16.58;6.88;;;7.10;54.50;;;;;;6108808;29;20046;-66
2023/02/01 01:20:41;;;;;;;14.73;7.15;;;7.20;54.50;;;;;;6124226;28;20052;-68
2023/02/01 01:23:43;;;;;;;12.88;6.43;;;7.20;54.50;;;;;;6124797;28;20036;-68
2023/02/01 01:26:44;;;;;;;22.92;8.40;;;7.10;54.50;;;;;;6166926;28;20091;-67
2023/02/01 01:29:45;;;;;;;20.33;7.75;;;7.10;54.50;;;;;;6248749;28;20022;-68
2023/02/01 01:32:45;;;;;;;18.50;7.70;;;7.10;54.60;;;;;;6248937;28;20438;-65
2023/02/01 01:35:46;;;;;;;25.45;7.50;;;7.50;54.90;;;;;;6197197;28;20032;-66
2023/02/01 01:38:48;;;;;;;20.20;7.30;;;7.00;54.70;;;;;;6100265;28;20035;-67
2023/02/01 01:41:48;;;;;;;12.82;6.03;;;7.00;54.70;;;;;;6102048;28;20040;-66
2023/02/01 01:45:26;;;;;;;18.30;7.65;;;7.00;55.40;;;;;;6100575;29;20052;-67
2023/02/01 01:48:30;;;;;;;20.05;7.65;;;7.00;54.80;;;;;;6100112;28;20518;-66
2023/02/01 01:51:36;;;;;;;15.23;7.50;;;6.90;54.90;;;;;;6100747;29;20078;-66
2023/02/01 01:54:49;;;;;;;17.90;6.90;;;6.80;54.90;;;;;;6116390;28;20035;-67
2023/02/01 01:57:57;;;;;;;24.77;7.20;;;6.80;54.90;;;;;;6121445;28;20040;-66
2023/02/01 02:00:58;;;;;;;18.17;7.63;;;6.90;55.10;;;;;;6138612;28;20031;-67
2023/02/01 02:03:59;;;;;;;19.40;8.70;;;6.80;55.00;;;;;;6123863;29;20130;-67
2023/02/01 02:07:03;;;;;;;26.45;8.20;;;6.80;55.60;;;;;;6125004;29;20399;-69
2023/02/01 02:10:07;;;;;;;17.13;7.47;;;6.80;55.00;;;;;;6124799;29;20455;-66
2023/02/01 02:13:08;;;;;;;23.27;8.13;;;6.80;55.00;;;;;;6123683;29;20055;-66
2023/02/01 02:16:27;;;;;;;21.52;7.13;;;6.80;55.10;;;;;;6124698;29;20028;-68
2023/02/01 02:20:07;;;;;;;17.55;7.70;;;6.80;55.10;;;;;;6123528;28;20130;-67
2023/02/01 02:23:26;;;;;;;;;;;6.70;55.20;;;;;;6125186;29;20055;-67
2023/02/01 02:26:49;;;;;;;15.68;8.20;;;6.70;55.20;;;;;;6155685;28;19908;-67
2023/02/01 02:30:28;;;;;;;16.85;8.02;;;6.60;55.30;;;;;;6253307;28;20064;-66
2023/02/01 02:33:53;;;;;;;19.38;8.27;;;6.50;55.40;;;;;;6159877;28;20049;-68
2023/02/01 02:37:32;;;;;;;25.27;8.68;;;6.40;55.60;;;;;;6156899;28;20141;-66
2023/02/01 02:41:02;;;;;;;16.65;7.60;;;6.40;55.80;;;;;;6170581;28;20534;-67
2023/02/01 02:47:56;;;;;;;16.13;6.45;;;6.20;56.10;;;;;;6172963;28;20070;-67
2023/02/01 03:04:25;;;;;;;20.00;8.27;;;6.30;56.40;;;;;;6172873;28;20065;-67
2023/02/01 03:08:03;;;;;;;27.05;9.27;;;6.30;56.30;;;;;;6168447;28;20027;-67
2023/02/01 03:11:10;;;;;;;16.80;7.80;;;6.30;56.30;;;;;;6122715;29;20412;-67
2023/02/01 03:14:12;;;;;;;17.45;8.10;;;6.30;56.40;;;;;;6091354;28;20040;-67
2023/02/01 03:17:23;;;;;;;21.40;7.97;;;6.30;56.50;;;;;;6114542;28;20550;-68
2023/02/01 03:20:25;;;;;;;20.77;9.13;;;6.30;56.40;;;;;;6098783;29;20079;-68
2023/02/01 03:23:33;;;;;;;13.25;6.43;;;6.30;56.40;;;;;;6083353;29;20028;-67
2023/02/01 03:26:37;;;;;;;;;;;6.30;56.40;;;;;;6141960;28;20033;-67
2023/02/01 03:30:02;;;;;;;19.77;7.90;;;6.30;56.40;;;;;;6246045;28;20035;-66
2023/02/01 03:33:13;;;;;;;13.48;6.57;;;6.20;56.40;;;;;;6236831;28;20065;-67
2023/02/01 03:36:19;;;;;;;19.58;7.70;;;6.20;56.50;;;;;;6184375;28;20110;-66
2023/02/01 03:39:32;;;;;;;16.65;7.80;;;6.20;56.60;;;;;;6121745;29;20162;-66
2023/02/01 03:42:42;;;;;;;14.65;6.78;;;6.20;56.60;;;;;;6122160;28;20479;-66
2023/02/01 03:45:50;;;;;;;18.13;7.18;;;6.20;56.60;;;;;;6122022;29;20411;-66
2023/02/01 03:48:52;;;;;;;;;;;6.20;56.70;;;;;;6122176;28;20054;-66
2023/02/01 03:51:54;;;;;;;21.58;7.15;;;6.20;56.70;;;;;;6121713;29;20358;-67
2023/02/01 03:54:57;;;;;;;13.55;5.88;;;6.20;56.60;;;;;;6123201;29;20066;-68
2023/02/01 03:58:07;;;;;;;19.05;7.82;;;6.20;56.70;;;;;;6122930;29;20039;-67
2023/02/01 04:01:08;;;;;;;16.05;7.20;;;6.20;56.70;;;;;;6121673;28;20036;-66
2023/02/01 04:04:19;;;;;;;19.98;6.55;;;6.20;56.80;;;;;;6121850;29;20044;-67
2023/02/01 04:07:22;;;;;;;12.05;5.97;;;6.20;56.70;;;;;;6122779;29;20024;-67
2023/02/01 04:10:23;;;;;;;15.32;6.53;;;6.30;56.70;;;;;;6122566;28;20150;-67
2023/02/01 04:13:24;;;;;;;15.35;7.53;;;6.30;56.70;;;;;;6122919;29;20039;-68
2023/02/01 04:16:25;;;;;;;20.08;7.90;;;6.30;56.70;;;;;;6105853;28;20055;-67
2023/02/01 04:19:26;;;;;;;11.75;6.22;;;6.30;56.70;;;;;;6121072;28;20036;-66
2023/02/01 04:22:28;;;;;;;19.98;7.78;;;6.20;56.70;;;;;;6122906;28;20372;-67
2023/02/01 04:25:30;;;;;;;14.93;6.38;;;6.20;56.80;;;;;;6122722;29;20117;-68
2023/02/01 04:28:31;;;;;;;15.30;6.35;;;6.20;56.80;;;;;;6238168;28;20386;-67
2023/02/01 04:31:32;;;;;;;18.35;7.90;;;6.30;56.80;;;;;;6228780;28;20029;-68
2023/02/01 04:34:33;;;;;;;18.17;7.30;;;6.30;56.80;;;;;;6246635;28;20440;-69
2023/02/01 04:37:34;;;;;;;19.08;7.20;;;6.40;56.70;;;;;;6128614;28;20030;-67
2023/02/01 04:40:37;;;;;;;18.73;7.95;;;6.40;56.60;;;;;;6121333;28;20035;-67
2023/02/01 04:43:38;;;;;;;17.10;7.57;;;6.50;56.60;;;;;;6120090;28;20036;-66
2023/02/01 04:46:39;;;;;;;12.10;6.25;;;6.50;56.50;;;;;;6122208;29;20576;-66
2023/02/01 04:49:40;;;;;;;16.88;6.45;;;6.50;56.40;;;;;;6121172;28;20115;-67
2023/02/01 04:52:41;;;;;;;19.85;7.78;;;6.50;56.40;;;;;;6105172;28;20040;-67
2023/02/01 04:55:42;;;;;;;16.45;6.50;;;6.40;56.50;;;;;;6105105;29;20028;-66
2023/02/01 04:58:43;;;;;;;15.20;6.53;;;6.30;56.50;;;;;;6121646;29;20051;-67
2023/02/01 05:01:44;;;;;;;15.23;6.45;;;6.30;56.60;;;;;;6120844;29;20028;-69
2023/02/01 05:04:45;;;;;;;16.50;7.22;;;6.20;56.70;;;;;;6120318;28;20097;-66
2023/02/01 05:07:47;;;;;;;17.52;6.25;;;6.10;56.80;;;;;;6120500;29;20090;-68
2023/02/01 05:10:48;;;;;;;20.92;6.90;;;6.10;57.00;;;;;;6121782;29;20464;-66
2023/02/01 05:13:48;;;;;;;10.95;5.93;;;6.00;57.10;;;;;;6121742;29;20097;-66
2023/02/01 05:16:49;;;;;;;15.65;7.15;;;6.00;57.20;;;;;;6120258;28;20032;-66
2023/02/01 05:19:50;;;;;;;13.45;6.13;;;5.90;57.30;;;;;;6120332;29;20522;-67
2023/02/01 05:22:51;;;;;;;21.48;6.70;;;5.90;57.50;;;;;;6121627;28;20115;-66
2023/02/01 05:25:52;;;;;;;20.80;8.27;;;5.80;57.40;;;;;;6128446;28;20459;-66
2023/02/01 05:28:53;;;;;;;11.82;5.72;;;5.80;57.50;;;;;;6245529;28;20083;-66
2023/02/01 05:31:54;;;;;;;16.77;6.13;;;5.80;57.60;;;;;;6245655;28;20022;-66
2023/02/01 05:34:55;;;;;;;14.23;6.10;;;5.80;57.60;;;;;;6236221;28;20029;-67
2023/02/01 05:37:55;;;;;;;15.15;6.28;;;5.80;57.70;;;;;;6119895;29;20035;-67
2023/02/01 05:40:56;;;;;;;19.27;7.80;;;5.70;57.70;;;;;;6120128;28;20032;-66
2023/02/01 05:43:57;;;;;;;19.30;7.78;;;5.70;57.90;;;;;;6121341;28;20449;-66
2023/02/01 05:46:58;;;;;;;16.80;6.20;;;5.70;57.90;;;;;;6121317;28;20059;-68
2023/02/01 05:49:59;;;;;;;22.15;7.70;;;5.70;57.90;;;;;;6120947;29;20460;-67
2023/02/01 05:53:00;;;;;;;13.93;6.72;;;5.70;58.00;;;;;;6119906;29;20063;-67
2023/02/01 05:56:01;;;;;;;17.00;6.20;;;5.70;58.10;;;;;;6121678;29;20055;-66
2023/02/01 05:59:02;;;;;;;17.63;6.85;;;5.60;58.10;;;;;;6123441;28;20089;-67
2023/02/01 06:02:03;;;;;;;21.45;8.00;;;5.60;58.20;;;;;;6114895;28;20039;-67
2023/02/01 06:05:04;;;;;;;17.40;6.95;;;5.60;58.20;;;;;;6101537;28;20040;-65
2023/02/01 06:08:07;;;;;;;20.92;7.50;;;5.60;58.20;;;;;;6101107;28;20040;-67
2023/02/01 06:11:08;;;;;;;19.73;7.88;;;5.70;58.30;;;;;;6100328;29;20083;-66
2023/02/01 06:14:09;;;;;;;24.63;7.53;;;5.70;58.20;;;;;;6100158;28;20028;-68
2023/02/01 06:17:10;;;;;;;16.67;7.03;;;5.70;58.20;;;;;;6115994;28;20063;-67
2023/02/01 06:20:12;;;;;;;26.33;7.22;;;5.70;58.20;;;;;;6099743;29;20044;-65
2023/02/01 06:23:13;;;;;;;11.73;6.40;;;5.70;58.20;;;;;;6099800;29;20036;-67
2023/02/01 06:26:14;;;;;;;19.10;7.25;;;5.70;58.20;;;;;;6141418;28;20052;-68
2023/02/01 06:29:15;;;;;;;18.67;7.82;;;5.60;58.20;;;;;;6185101;28;20070;-65
2023/02/01 06:32:17;;;;;;;12.95;5.18;;;5.60;58.30;;;;;;6192148;28;20026;-66
2023/02/01 06:35:18;;;;;;;16.83;6.43;;;5.50;58.40;;;;;;6224328;28;20038;-69
2023/02/01 06:38:18;;;;;;;12.02;6.70;;;5.60;58.40;;;;;;6124680;29;20391;-68
2023/02/01 06:41:20;;;;;;;16.50;7.57;;;5.50;58.40;;;;;;6124868;29;20035;-70
2023/02/01 06:44:21;;;;;;;16.02;6.75;;;5.50;58.40;;;;;;6124673;29;20040;-67
2023/02/01 06:47:22;;;;;;;20.27;8.25;;;5.50;58.50;;;;;;6124453;28;20102;-66
2023/02/01 06:50:22;;;;;;;18.55;6.78;;;5.50;58.40;;;;;;6123689;29;20089;-67
2023/02/01 06:53:24;;;;;;;15.27;6.85;;;5.50;58.40;;;;;;6124070;29;20459;-66
2023/02/01 06:56:25;;;;;;;25.23;8.43;;;5.50;58.50;;;;;;6123882;28;20036;-68
2023/02/01 06:59:26;;;;;;;18.55;6.75;;;5.50;58.60;;;;;;6123662;29;20043;-68
2023/02/01 07:02:27;;;;;;;16.27;6.38;;;5.40;58.50;;;;;;6127621;29;20047;-65
2023/02/01 07:05:28;;;;;;;12.05;6.45;;;5.40;58.60;;;;;;6129792;29;20039;-65
2023/02/01 07:08:31;;;;;;;18.05;6.65;;;5.50;58.70;;;;;;6123057;29;20106;-68
2023/02/01 07:11:32;;;;;;;14.80;5.75;;;5.50;58.60;;;;;;6125034;28;20028;-66
2023/02/01 07:14:32;;;;;;;17.83;5.60;;;5.50;58.50;;;;;;6124883;29;20119;-68
2023/02/01 07:17:34;;;;;;;10.10;5.90;;;5.60;58.50;;;;;;6124370;29;20028;-67
2023/02/01 07:20:34;;;;;;;18.50;7.93;;;5.70;58.40;;;;;;6124188;29;20086;-68
2023/02/01 07:23:35;;;;;;;19.00;7.32;;;5.70;58.40;;;;;;6124292;28;20081;-65
2023/02/01 07:26:36;;;;;;;19.45;7.18;;;5.70;58.30;;;;;;6122807;28;20044;-67
2023/02/01 07:29:37;;;;;;;16.63;6.50;;;5.80;58.30;;;;;;6123507;29;20165;-66
2023/02/01 07:32:38;;;;;;;18.00;7.47;;;5.90;58.20;;;;;;6122502;29;20097;-68
2023/02/01 07:35:39;;;;;;;13.13;6.80;;;5.90;58.10;;;;;;6122533;29;20633;-66
2023/02/01 07:38:39;;;;;;;19.27;8.55;;;6.00;58.10;;;;;;6122431;29;20028;-68
2023/02/01 07:41:40;;;;;;;19.55;6.85;;;6.00;58.00;;;;;;6123806;29;20060;-68
2023/02/01 07:44:41;;;;;;;18.25;6.65;;;6.00;57.90;;;;;;6123651;29;20086;-68
2023/02/01 07:47:42;;;;;;;21.13;7.68;;;5.90;57.90;;;;;;6122200;29;20051;-67
2023/02/01 07:50:43;;;;;;;25.25;7.72;;;5.90;58.00;;;;;;6122279;29;20032;-67
2023/02/01 07:53:44;;;;;;;18.67;7.38;;;5.80;58.00;;;;;;6122018;28;20451;-65
2023/02/01 07:56:45;;;;;;;14.15;7.40;;;5.80;58.10;;;;;;6123752;29;20110;-68
2023/02/01 08:03:13;;;;;;;19.80;7.05;;;5.80;58.20;;;;;;6123453;29;20032;-67
2023/02/01 08:06:14;;;;;;;17.10;8.65;;;5.80;58.20;;;;;;6123028;28;20074;-68
2023/02/01 08:09:15;;;;;;;16.30;7.35;;;5.80;58.30;;;;;;6121583;29;20525;-67
2023/02/01 08:12:16;;;;;;;13.60;7.38;;;6.00;58.30;;;;;;6123238;29;20102;-68
2023/02/01 08:15:17;;;;;;;20.05;8.10;;;6.00;58.10;;;;;;6123573;29;20034;-67
2023/02/01 08:18:18;;;;;;;16.60;7.78;;;6.10;57.90;;;;;;6121495;28;20051;-68
2023/02/01 08:21:23;;;;;;;22.50;7.15;;;6.20;57.80;;;;;;6123002;28;20035;-65
2023/02/01 08:24:24;;;;;;;20.52;8.52;;;6.30;57.70;;;;;;6121415;28;20039;-67
2023/02/01 08:27:25;;;;;;;13.25;6.55;;;6.40;57.60;;;;;;6122750;28;20055;-68
2023/02/01 08:30:27;;;;;;;15.82;7.65;;;6.40;57.40;;;;;;6122706;28;20110;-67
2023/02/01 08:33:28;;;;;;;19.17;8.32;;;6.50;57.20;;;;;;6123101;29;20035;-66
2023/02/01 08:36:31;;;;;;;22.40;7.45;;;6.50;57.00;;;;;;6122848;29;20031;-66
2023/02/01 08:39:32;;;;;;;18.67;6.15;;;6.60;57.00;;;;;;6122489;29;20464;-67
2023/02/01 08:42:51;;;;;;;17.95;6.80;;;6.60;56.90;;;;;;6122939;29;20032;-67
2023/02/01 08:45:54;;;;;;;;;;;6.70;56.80;;;;;;6123276;29;20020;-66
2023/02/01 08:48:55;;;;;;;16.23;6.40;;;6.80;56.80;;;;;;6122139;29;19915;-68
2023/02/01 08:51:56;;;;;;;20.10;8.38;;;7.00;56.70;;;;;;6122339;28;20031;-66
2023/02/01 08:54:57;;;;;;;19.55;9.65;;;7.10;56.40;;;;;;6122373;28;20024;-67
2023/02/01 08:57:58;;;;;;;22.25;8.57;;;7.20;56.30;;;;;;6120973;28;20472;-67
2023/02/01 09:01:25;;;;;;;21.88;8.02;;;7.30;56.10;;;;;;6122398;28;20031;-65
2023/02/01 09:04:26;;;;;;;26.27;8.18;;;7.40;55.80;;;;;;6106798;29;20047;-66
2023/02/01 09:07:27;;;;;;;20.38;8.85;;;7.50;55.50;;;;;;6122159;29;20806;-69
2023/02/01 09:10:28;;;;;;;15.93;7.50;;;7.70;55.30;;;;;;6122586;28;20034;-67
2023/02/01 09:13:29;;;;;;;23.17;7.88;;;7.80;55.10;;;;;;6123085;28;20134;-67
2023/02/01 09:16:29;;;;;;;15.93;7.05;;;7.90;54.80;;;;;;6130874;29;20070;-66
2023/02/01 09:19:31;;;;;;;16.50;7.68;;;8.10;54.70;;;;;;6122377;29;20039;-68
2023/02/01 09:22:32;;;;;;;18.67;8.23;;;8.10;54.40;;;;;;6122441;29;20035;-68
2023/02/01 09:25:32;;;;;;;23.13;9.13;;;8.10;54.50;;;;;;6121968;29;20047;-65
2023/02/01 09:28:33;;;;;;;19.40;8.00;;;8.10;53.90;;;;;;6121505;28;20028;-67
2023/02/01 09:31:34;;;;;;;18.23;8.43;;;8.10;54.00;;;;;;6107577;29;20062;-66
2023/02/01 09:34:35;;;;;;;20.58;8.52;;;8.10;54.00;;;;;;6124998;29;20035;-67
2023/02/01 09:37:37;;;;;;;20.48;8.40;;;8.20;53.70;;;;;;6116636;29;20455;-66
2023/02/01 09:40:46;;;;;;;19.52;7.93;;;8.20;53.50;;;;;;6100924;29;20032;-67
2023/02/01 09:44:01;;;;;;;25.52;10.30;;;8.20;53.30;;;;;;6102500;29;20435;-68
2023/02/01 09:47:02;;;;;;;19.48;8.60;;;8.20;53.40;;;;;;6108637;29;20044;-64
2023/02/01 09:50:16;;;;;;;22.60;9.65;;;8.30;53.50;;;;;;6124021;28;20028;-66
2023/02/01 09:53:23;;;;;;;21.60;8.93;;;8.40;53.40;;;;;;6109995;28;20122;-67
2023/02/01 09:56:30;;;;;;;22.08;7.93;;;8.50;53.30;;;;;;6125874;28;20401;-67
2023/02/01 10:00:02;;;;;;;19.17;8.00;;;8.50;53.20;;;;;;6124788;29;20035;-66
2023/02/01 10:03:13;;;;;;;21.90;7.50;;;8.70;53.10;;;;;;6124744;29;20092;-67
2023/02/01 10:06:20;;;;;;;16.80;6.47;;;8.80;52.90;;;;;;6124050;28;20169;-66
2023/02/01 10:09:47;;;;;;;23.38;9.27;;;8.90;52.80;;;;;;6124550;29;20036;-67
2023/02/01 10:12:54;;;;;;;21.58;8.43;;;9.00;52.50;;;;;;6125149;29;20117;-68
2023/02/01 10:16:13;;;;;;;35.13;9.95;;;9.10;52.20;;;;;;6124972;28;20036;-68
2023/02/01 10:19:24;;;;;;;;;;;9.10;51.70;;;;;;6124201;29;20471;-66
2023/02/01 10:23:26;;;;;;;13.48;6.68;;;9.30;51.70;;;;;;6139897;29;19946;-66
2023/02/01 10:26:37;;;;;;;17.73;6.75;;;9.60;51.00;;;;;;6192819;28;20034;-68
2023/02/01 10:29:42;;;;;;;23.20;8.18;;;9.90;50.50;;;;;;6197640;28;20073;-67
2023/02/01 10:32:43;;;;;;;26.58;8.73;;;10.10;50.00;;;;;;6181925;28;20494;-66
2023/02/01 10:35:45;;;;;;;20.98;7.80;;;10.30;49.70;;;;;;6197507;28;20034;-69
2023/02/01 10:38:46;;;;;;;21.33;8.07;;;10.60;49.60;;;;;;6197050;28;20039;-67
2023/02/01 10:41:47;;;;;;;18.95;8.23;;;10.70;49.30;;;;;;6197386;28;20425;-66
2023/02/01 10:44:48;;;;;;;18.65;7.65;;;10.80;49.30;;;;;;6160658;28;20539;-68
2023/02/01 10:47:52;;;;;;;20.17;8.85;;;10.90;49.00;;;;;;6173206;28;20045;-68
2023/02/01 10:51:28;;;;;;;24.02;7.63;;;11.10;49.00;;;;;;6173007;28;20038;-68
2023/02/01 10:54:38;;;;;;;19.38;7.18;;;11.30;48.80;;;;;;6172681;28;20126;-68
2023/02/01 10:57:38;;;;;;;13.05;6.65;;;11.50;48.50;;;;;;6109607;28;20051;-67
2023/02/01 11:00:48;;;;;;;22.65;7.45;;;11.70;48.10;;;;;;6099237;28;20542;-67
2023/02/01 11:04:03;;;;;;;18.33;7.47;;;11.90;47.80;;;;;;6100918;28;20040;-67
2023/02/01 11:07:25;;;;;;;20.38;7.88;;;12.30;48.10;;;;;;6099224;29;20036;-67
2023/02/01 11:10:40;;;;;;;23.30;8.82;;;12.70;46.90;;;;;;6098881;29;20111;-67
2023/02/01 11:13:42;;;;;;;15.65;7.22;;;13.10;46.20;;;;;;6083499;28;20342;-65
2023/02/01 11:16:52;;;;;;;20.58;8.88;;;13.50;45.50;;;;;;6100801;29;20033;-67
2023/02/01 11:19:58;;;;;;;23.02;7.88;;;13.80;44.60;;;;;;6099914;29;20107;-67
2023/02/01 11:22:59;;;;;;;25.48;6.72;;;14.20;43.90;;;;;;6098959;29;20040;-67
2023/02/01 11:26:07;;;;;;;34.63;9.38;;;14.50;43.00;;;;;;6102822;29;20024;-67
2023/02/01 11:29:17;;;;;;;23.08;9.55;;;15.00;42.40;;;;;;6121981;29;20389;-68
2023/02/01 11:32:22;;;;;;;17.38;7.72;;;15.30;40.60;;;;;;6122529;29;20488;-66
2023/02/01 11:35:23;;;;;;;17.90;7.88;;;15.50;40.20;;;;;;6123718;29;20430;-66
2023/02/01 11:38:32;;;;;;;33.35;8.95;;;15.90;40.40;;;;;;6123714;29;20118;-68
2023/02/01 11:41:33;;;;;;;28.38;7.35;;;16.20;39.30;;;;;;6104104;28;20032;-69
2023/02/01 11:44:38;;;;;;;13.68;7.05;;;16.60;38.20;;;;;;6102555;29;20094;-69
2023/02/01 11:47:40;;;;;;;19.58;7.38;;;17.00;37.30;;;;;;6100527;29;20047;-67
2023/02/01 11:51:05;;;;;;;14.50;7.35;;;17.30;36.30;;;;;;6099736;29;20427;-67
2023/02/01 11:54:22;;;;;;;14.48;6.18;;;17.30;36.30;;;;;;6099379;29;20032;-66
2023/02/01 11:57:23;;;;;;;19.98;8.23;;;17.60;36.80;;;;;;6100053;29;20032;-68
2023/02/01 12:00:45;;;;;;;19.88;8.32;;;18.00;35.90;;;;;;6099460;29;20452;-67
2023/02/01 12:04:14;;;;;;;23.00;7.82;;;18.30;35.70;;;;;;6098672;29;20123;-68
2023/02/01 12:07:15;;;;;;;14.20;7.15;;;18.90;35.00;;;;;;6098164;29;20036;-68
2023/02/01 12:10:49;;;;;;;10.27;4.57;;;19.50;33.60;;;;;;6099098;28;20031;-67
2023/02/01 12:14:11;;;;;;;11.55;4.85;;;19.60;32.40;;;;;;6082397;29;20036;-66
2023/02/01 12:17:42;;;;;;;9.93;3.67;;;19.20;33.00;;;;;;6099307;29;20044;-67
2023/02/01 12:21:00;;;;;;;6.97;3.63;;;19.00;33.40;;;;;;6097814;29;20086;-68
2023/02/01 12:24:31;;;;;;;7.70;2.70;;;18.70;33.90;;;;;;6098105;29;20044;-67
2023/02/01 12:27:55;;;;;;;6.88;2.75;;;18.20;34.50;;;;;;6113069;28;20038;-67
2023/02/01 12:31:15;;;;;;;3.78;2.17;;;17.60;35.30;;;;;;6121181;29;20377;-65
2023/02/01 12:34:31;;;;;;;12.90;4.28;;;17.00;36.20;;;;;;6121307;29;20085;-68
2023/02/01 12:37:50;;;;;;;10.07;4.43;;;16.50;36.80;;;;;;6121942;29;20051;-67
2023/02/01 12:40:57;;;;;;;13.05;4.93;;;16.10;37.30;;;;;;6120986;28;20469;-68
2023/02/01 12:44:33;;;;;;;18.35;5.05;;;15.80;37.60;;;;;;6122483;29;20419;-67
2023/02/01 12:47:51;;;;;;;13.23;5.88;;;15.50;37.90;;;;;;6120944;29;20032;-68
2023/02/01 12:51:07;;;;;;;8.65;5.00;;;15.20;37.90;;;;;;6121121;29;20036;-68
2023/02/01 12:54:35;;;;;;;10.63;4.43;;;15.10;38.20;;;;;;6120504;28;20399;-68
2023/02/01 12:57:42;;;;;;;9.90;4.38;;;14.90;38.30;;;;;;6121933;29;20036;-67
2023/02/01 13:00:48;;;;;;;9.95;4.95;;;14.80;38.40;;;;;;6122089;29;20329;-67
2023/02/01 13:04:11;;;;;;;14.25;4.80;;;14.80;38.70;;;;;;6122186;29;20055;-68
2023/02/01 13:07:25;;;;;;;12.57;4.35;;;14.80;38.80;;;;;;6125449;29;20034;-66
2023/02/01 13:10:36;;;;;;;11.88;4.82;;;14.80;38.70;;;;;;6124940;29;20031;-67
2023/02/01 13:13:58;;;;;;;14.80;5.25;;;14.80;38.80;;;;;;6126590;29;20130;-66
2023/02/01 13:17:14;;;;;;;13.32;4.53;;;14.70;38.70;;;;;;6124842;29;20047;-68
2023/02/01 13:20:37;;;;;;;17.15;4.82;;;14.60;39.10;;;;;;6125880;29;20050;-67
2023/02/01 13:23:43;;;;;;;16.20;4.57;;;14.50;39.20;;;;;;6125219;29;20039;-68
2023/02/01 13:26:46;;;;;;;10.60;3.85;;;14.50;39.30;;;;;;6126112;28;20026;-68
2023/02/01 13:29:57;;;;;;;9.63;5.00;;;14.50;39.40;;;;;;6125726;29;20028;-65
2023/02/01 13:33:32;;;;;;;9.07;3.90;;;14.50;39.50;;;;;;6124580;28;20109;-67
2023/02/01 13:36:51;;;;;;;12.18;4.70;;;14.50;39.60;;;;;;6124621;29;20039;-67
2023/02/01 13:40:09;;;;;;;5.88;3.13;;;14.40;39.70;;;;;;6125982;28;20281;-67
2023/02/01 13:43:19;;;;;;;9.67;4.53;;;14.30;39.90;;;;;;6126083;28;20028;-66
2023/02/01 13:46:20;;;;;;;17.88;4.22;;;14.30;40.20;;;;;;6124362;29;20036;-65
2023/02/01 13:49:25;;;;;;;10.65;4.70;;;14.20;40.20;;;;;;6125462;29;20446;-67
2023/02/01 13:52:38;;;;;;;11.30;5.20;;;14.20;40.30;;;;;;6125520;29;20051;-68
2023/02/01 13:55:44;;;;;;;14.75;4.47;;;14.20;40.30;;;;;;6124681;28;20479;-68
2023/02/01 13:58:47;;;;;;;11.50;4.60;;;14.20;40.30;;;;;;6125193;29;20039;-67
2023/02/01 14:01:48;;;;;;;9.13;4.25;;;14.20;40.20;;;;;;6125456;29;20074;-67
2023/02/01 14:04:50;;;;;;;10.13;3.95;;;14.20;40.30;;;;;;6124327;29;20071;-67
2023/02/01 14:08:09;;;;;;;12.75;4.63;;;14.20;40.50;;;;;;6125091;29;20058;-66
2023/02/01 14:11:35;;;;;;;10.82;3.83;;;14.20;40.50;;;;;;6125366;29;20388;-67
2023/02/01 14:14:36;;;;;;;12.18;3.83;;;14.30;40.40;;;;;;6125235;29;20039;-68
2023/02/01 14:17:37;;;;;;;9.73;3.25;;;14.30;40.30;;;;;;6125311;29;20032;-68
2023/02/01 14:20:45;;;;;;;7.28;2.47;;;14.40;40.40;;;;;;6125478;29;20024;-67
2023/02/01 14:23:53;;;;;;;6.05;2.65;;;14.30;40.30;;;;;;6134448;29;20028;-68
2023/02/01 14:26:59;;;;;;;6.90;2.53;;;14.30;40.80;;;;;;6124519;28;20036;-66
2023/02/01 14:30:04;;;;;;;10.93;1.48;;;14.20;41.10;;;;;;6123124;29;20047;-67
2023/02/01 14:33:20;;;;;;;6.85;1.35;;;14.20;41.40;;;;;;6124124;29;20046;-65
2023/02/01 14:36:21;;;;;;;2.72;1.52;;;14.10;41.70;;;;;;6123654;29;20032;-65
2023/02/01 14:39:30;;;;;;;5.40;1.40;;;14.00;41.90;;;;;;6123072;28;20052;-68
2023/02/01 14:42:46;;;;;;;2.63;1.50;;;14.00;42.40;;;;;;6124804;28;20097;-67
2023/02/01 14:45:50;;;;;;;9.32;1.50;;;13.90;42.70;;;;;;6123315;29;20094;-66
2023/02/01 14:48:57;;;;;;;2.75;1.60;;;13.80;43.10;;;;;;6122942;29;20032;-67
2023/02/01 14:51:59;;;;;;;5.10;1.63;;;13.80;43.40;;;;;;6124672;29;20039;-67
2023/02/01 14:55:05;;;;;;;4.07;1.85;;;13.70;43.70;;;;;;6123333;29;20032;-67
2023/02/01 14:58:25;;;;;;;3.88;1.60;;;13.60;44.20;;;;;;6124012;29;20111;-68
2023/02/01 15:01:33;;;;;;;4.20;1.92;;;13.50;44.50;;;;;;6122983;29;20429;-66
2023/02/01 15:04:42;;;;;;;2.60;2.05;;;13.40;44.90;;;;;;6107610;29;20051;-66
2023/02/01 15:07:43;;;;;;;7.05;1.88;;;13.30;45.30;;;;;;6124090;29;20035;-67
2023/02/01 15:10:47;;;;;;;7.38;1.40;;;13.20;45.60;;;;;;6124161;28;20415;-67
2023/02/01 15:13:54;;;;;;;2.72;1.70;;;13.10;46.00;;;;;;6122710;28;20024;-68
2023/02/01 15:16:55;;;;;;;3.47;1.60;;;13.00;46.50;;;;;;6123062;29;20039;-67
2023/02/01 15:19:58;;;;;;;3.60;1.73;;;12.90;46.70;;;;;;6122253;28;20365;-67
2023/02/01 15:23:15;;;;;;;3.58;1.83;;;12.90;47.00;;;;;;6123678;29;20416;-68
2023/02/01 15:26:27;;;;;;;2.30;1.52;;;12.80;47.40;;;;;;6123702;28;20444;-67
2023/02/01 15:29:32;;;;;;;2.63;1.80;;;12.70;47.70;;;;;;6121353;29;20035;-66
2023/02/01 15:32:37;;;;;;;2.67;1.88;;;12.70;47.90;;;;;;6123553;29;20042;-67
2023/02/01 15:35:47;;;;;;;3.70;1.77;;;12.60;48.20;;;;;;6123771;29;20452;-68
2023/02/01 15:38:48;;;;;;;3.65;1.58;;;12.60;48.50;;;;;;6123231;29;20110;-69
2023/02/01 15:41:52;;;;;;;4.10;1.60;;;12.50;48.60;;;;;;6122376;29;20387;-66
2023/02/01 15:44:53;;;;;;;3.30;2.08;;;12.50;48.70;;;;;;6122792;29;20448;-66
2023/02/01 15:47:56;;;;;;;4.38;2.10;;;12.40;48.80;;;;;;6121942;29;20513;-67
2023/02/01 15:50:58;;;;;;;6.20;1.70;;;12.30;48.90;;;;;;6122610;29;20042;-68
2023/02/01 15:54:02;;;;;;;4.43;1.73;;;12.30;49.00;;;;;;6123531;29;20048;-66
2023/02/01 15:57:05;;;;;;;2.25;1.48;;;12.30;49.20;;;;;;6122253;29;20024;-67
2023/02/01 16:00:27;;;;;;;2.40;1.30;;;12.20;49.30;;;;;;6123131;29;20035;-68
2023/02/01 16:03:40;;;;;;;2.42;1.70;;;12.20;49.40;;;;;;6121871;29;20193;-67
2023/02/01 16:06:51;;;;;;;1.55;1.38;;;12.20;49.40;;;;;;6123594;28;20028;-68
2023/02/01 16:09:56;;;;;;;2.28;1.20;;;12.20;49.40;;;;;;6122790;29;20031;-68
2023/02/01 16:13:00;;;;;;;3.75;1.10;;;12.20;49.50;;;;;;6121621;29;20034;-68
2023/02/01 16:16:01;;;;;;;2.97;1.58;;;12.10;49.60;;;;;;6121628;29;20089;-68
2023/02/01 16:19:02;;;;;;;2.50;1.15;;;12.10;49.70;;;;;;6121166;29;20476;-67
2023/02/01 16:22:03;;;;;;;5.43;1.30;;;12.10;49.70;;;;;;6104165;29;20067;-67
2023/02/01 16:25:04;;;;;;;5.53;1.23;;;12.10;49.70;;;;;;6098453;29;20032;-66
2023/02/01 16:28:05;;;;;;;3.67;1.67;;;12.10;49.70;;;;;;6096860;28;20122;-67
2023/02/01 16:31:19;;;;;;;1.65;1.15;;;12.00;49.70;;;;;;6098494;28;20036;-67